sensor_id;sensor_type;location;lat;lon;timestamp;temperature;humidity
16663;DHT22;8445;51.270;9.434;2024-02-28T00:01:32;0.90;81.10
16663;DHT22;8445;51.270;9.434;2024-02-28T00:03:59;1.00;81.20
16663;DHT22;8445;51.270;9.434;2024-02-28T00:06:25;1.00;81.30
16663;DHT22;8445;51.270;9.434;2024-02-28T00:08:51;1.00;81.20
16663;DHT22;8445;51.270;9.434;2024-02-28T00:11:20;1.10;80.90
16663;DHT22;8445;51.270;9.434;2024-02-28T00:13:51;1.20;80.70
16663;DHT22;8445;51.270;9.434;2024-02-28T00:16:22;1.20;80.60
16663;DHT22;8445;51.270;9.434;2024-02-28T00:18:51;1.30;80.50
16663;DHT22;8445;51.270;9.434;2024-02-28T00:21:19;1.30;80.50
16663;DHT22;8445;51.270;9.434;2024-02-28T00:23:45;1.40;80.30
16663;DHT22;8445;51.270;9.434;2024-02-28T00:26:12;1.40;80.30
16663;DHT22;8445;51.270;9.434;2024-02-28T00:28:38;1.40;80.20
16663;DHT22;8445;51.270;9.434;2024-02-28T00:31:04;1.50;80.20
16663;DHT22;8445;51.270;9.434;2024-02-28T00:33:29;1.50;80.10
16663;DHT22;8445;51.270;9.434;2024-02-28T00:35:58;1.50;80.00
16663;DHT22;8445;51.270;9.434;2024-02-28T00:38:24;1.60;80.00
16663;DHT22;8445;51.270;9.434;2024-02-28T00:40:49;1.60;80.00
16663;DHT22;8445;51.270;9.434;2024-02-28T00:43:15;1.60;80.30
16663;DHT22;8445;51.270;9.434;2024-02-28T00:45:41;1.70;80.50
16663;DHT22;8445;51.270;9.434;2024-02-28T00:48:09;1.70;80.50
16663;DHT22;8445;51.270;9.434;2024-02-28T00:50:38;1.70;80.40
16663;DHT22;8445;51.270;9.434;2024-02-28T00:53:05;1.80;80.20
16663;DHT22;8445;51.270;9.434;2024-02-28T00:55:31;1.80;80.30
16663;DHT22;8445;51.270;9.434;2024-02-28T00:57:57;1.90;80.20
16663;DHT22;8445;51.270;9.434;2024-02-28T01:00:23;1.90;80.10
16663;DHT22;8445;51.270;9.434;2024-02-28T01:02:49;1.90;79.90
16663;DHT22;8445;51.270;9.434;2024-02-28T01:05:14;1.90;79.90
16663;DHT22;8445;51.270;9.434;2024-02-28T01:07:48;2.00;79.80
16663;DHT22;8445;51.270;9.434;2024-02-28T01:10:14;2.00;79.70
16663;DHT22;8445;51.270;9.434;2024-02-28T01:12:40;2.00;79.70
16663;DHT22;8445;51.270;9.434;2024-02-28T01:15:06;2.00;79.70
16663;DHT22;8445;51.270;9.434;2024-02-28T01:17:33;2.00;79.60
16663;DHT22;8445;51.270;9.434;2024-02-28T01:19:59;2.10;79.50
16663;DHT22;8445;51.270;9.434;2024-02-28T01:22:25;2.10;79.50
16663;DHT22;8445;51.270;9.434;2024-02-28T01:24:51;2.10;79.50
16663;DHT22;8445;51.270;9.434;2024-02-28T01:27:16;2.20;79.60
16663;DHT22;8445;51.270;9.434;2024-02-28T01:29:42;2.20;79.50
16663;DHT22;8445;51.270;9.434;2024-02-28T01:32:09;2.20;79.50
16663;DHT22;8445;51.270;9.434;2024-02-28T01:34:35;2.20;79.40
16663;DHT22;8445;51.270;9.434;2024-02-28T01:37:01;2.20;79.50
16663;DHT22;8445;51.270;9.434;2024-02-28T01:39:27;2.20;79.50
16663;DHT22;8445;51.270;9.434;2024-02-28T01:41:54;2.20;79.60
16663;DHT22;8445;51.270;9.434;2024-02-28T01:44:20;2.20;79.50
16663;DHT22;8445;51.270;9.434;2024-02-28T01:46:47;2.30;79.60
16663;DHT22;8445;51.270;9.434;2024-02-28T01:49:13;2.30;79.60
16663;DHT22;8445;51.270;9.434;2024-02-28T01:51:41;2.30;79.40
16663;DHT22;8445;51.270;9.434;2024-02-28T01:54:10;2.30;79.40
16663;DHT22;8445;51.270;9.434;2024-02-28T01:56:37;2.40;79.40
16663;DHT22;8445;51.270;9.434;2024-02-28T01:59:04;2.40;79.40
16663;DHT22;8445;51.270;9.434;2024-02-28T02:01:31;2.40;79.40
16663;DHT22;8445;51.270;9.434;2024-02-28T02:03:57;2.40;79.40
16663;DHT22;8445;51.270;9.434;2024-02-28T02:06:23;2.40;79.30
16663;DHT22;8445;51.270;9.434;2024-02-28T02:08:51;2.40;79.30
16663;DHT22;8445;51.270;9.434;2024-02-28T02:11:26;2.50;79.30
16663;DHT22;8445;51.270;9.434;2024-02-28T02:14:01;2.50;79.20
16663;DHT22;8445;51.270;9.434;2024-02-28T02:16:27;2.50;79.20
16663;DHT22;8445;51.270;9.434;2024-02-28T02:18:53;2.50;79.10
16663;DHT22;8445;51.270;9.434;2024-02-28T02:21:24;2.50;79.10
16663;DHT22;8445;51.270;9.434;2024-02-28T02:23:58;2.50;79.00
16663;DHT22;8445;51.270;9.434;2024-02-28T02:26:24;2.50;79.10
16663;DHT22;8445;51.270;9.434;2024-02-28T02:28:50;2.50;79.00
16663;DHT22;8445;51.270;9.434;2024-02-28T02:31:16;2.50;79.00
16663;DHT22;8445;51.270;9.434;2024-02-28T02:33:42;2.60;79.00
16663;DHT22;8445;51.270;9.434;2024-02-28T02:36:08;2.60;79.00
16663;DHT22;8445;51.270;9.434;2024-02-28T02:38:34;2.50;79.00
16663;DHT22;8445;51.270;9.434;2024-02-28T02:41:00;2.60;79.00
16663;DHT22;8445;51.270;9.434;2024-02-28T02:43:26;2.60;79.00
16663;DHT22;8445;51.270;9.434;2024-02-28T02:45:52;2.60;79.00
16663;DHT22;8445;51.270;9.434;2024-02-28T02:48:17;2.50;79.00
16663;DHT22;8445;51.270;9.434;2024-02-28T02:50:43;2.60;79.00
16663;DHT22;8445;51.270;9.434;2024-02-28T02:53:10;2.60;78.80
16663;DHT22;8445;51.270;9.434;2024-02-28T02:55:36;2.60;78.50
16663;DHT22;8445;51.270;9.434;2024-02-28T02:58:02;2.50;78.40
16663;DHT22;8445;51.270;9.434;2024-02-28T03:00:28;2.50;78.60
16663;DHT22;8445;51.270;9.434;2024-02-28T03:02:54;2.50;78.60
16663;DHT22;8445;51.270;9.434;2024-02-28T03:05:20;2.40;78.90
16663;DHT22;8445;51.270;9.434;2024-02-28T03:07:46;2.40;78.90
16663;DHT22;8445;51.270;9.434;2024-02-28T03:10:12;2.40;78.90
16663;DHT22;8445;51.270;9.434;2024-02-28T03:12:38;2.40;78.90
16663;DHT22;8445;51.270;9.434;2024-02-28T03:15:05;2.40;78.90
16663;DHT22;8445;51.270;9.434;2024-02-28T03:17:31;2.40;78.90
16663;DHT22;8445;51.270;9.434;2024-02-28T03:19:59;2.40;79.00
16663;DHT22;8445;51.270;9.434;2024-02-28T03:22:25;2.40;78.90
16663;DHT22;8445;51.270;9.434;2024-02-28T03:24:51;2.40;78.90
16663;DHT22;8445;51.270;9.434;2024-02-28T03:27:16;2.30;78.90
16663;DHT22;8445;51.270;9.434;2024-02-28T03:29:42;2.40;78.90
16663;DHT22;8445;51.270;9.434;2024-02-28T03:32:09;2.40;78.80
16663;DHT22;8445;51.270;9.434;2024-02-28T03:34:35;2.40;78.80
16663;DHT22;8445;51.270;9.434;2024-02-28T03:37:01;2.50;78.60
16663;DHT22;8445;51.270;9.434;2024-02-28T03:39:27;2.50;78.60
16663;DHT22;8445;51.270;9.434;2024-02-28T03:41:53;2.50;78.50
16663;DHT22;8445;51.270;9.434;2024-02-28T03:44:19;2.50;78.40
16663;DHT22;8445;51.270;9.434;2024-02-28T03:46:47;2.50;78.50
16663;DHT22;8445;51.270;9.434;2024-02-28T03:49:12;2.50;78.40
16663;DHT22;8445;51.270;9.434;2024-02-28T03:51:41;2.50;78.40
16663;DHT22;8445;51.270;9.434;2024-02-28T03:54:08;2.50;78.40
16663;DHT22;8445;51.270;9.434;2024-02-28T03:56:34;2.50;78.40
16663;DHT22;8445;51.270;9.434;2024-02-28T03:59:01;2.50;78.40
16663;DHT22;8445;51.270;9.434;2024-02-28T04:01:27;2.50;78.40
16663;DHT22;8445;51.270;9.434;2024-02-28T04:03:53;2.50;78.40
16663;DHT22;8445;51.270;9.434;2024-02-28T04:06:19;2.50;78.30
16663;DHT22;8445;51.270;9.434;2024-02-28T04:08:46;2.50;78.30
16663;DHT22;8445;51.270;9.434;2024-02-28T04:11:12;2.40;78.20
16663;DHT22;8445;51.270;9.434;2024-02-28T04:13:39;2.40;78.20
16663;DHT22;8445;51.270;9.434;2024-02-28T04:16:07;2.40;78.30
16663;DHT22;8445;51.270;9.434;2024-02-28T04:18:34;2.40;78.30
16663;DHT22;8445;51.270;9.434;2024-02-28T04:21:00;2.40;78.30
16663;DHT22;8445;51.270;9.434;2024-02-28T04:23:26;2.40;78.30
16663;DHT22;8445;51.270;9.434;2024-02-28T04:25:51;2.40;78.30
16663;DHT22;8445;51.270;9.434;2024-02-28T04:28:17;2.40;78.30
16663;DHT22;8445;51.270;9.434;2024-02-28T04:30:43;2.40;78.20
16663;DHT22;8445;51.270;9.434;2024-02-28T04:33:09;2.40;78.30
16663;DHT22;8445;51.270;9.434;2024-02-28T04:35:35;2.40;78.30
16663;DHT22;8445;51.270;9.434;2024-02-28T04:38:01;2.40;78.40
16663;DHT22;8445;51.270;9.434;2024-02-28T04:40:27;2.30;78.40
16663;DHT22;8445;51.270;9.434;2024-02-28T04:42:53;2.40;78.30
16663;DHT22;8445;51.270;9.434;2024-02-28T04:45:18;2.40;78.30
16663;DHT22;8445;51.270;9.434;2024-02-28T04:47:44;2.30;78.30
16663;DHT22;8445;51.270;9.434;2024-02-28T04:50:11;2.40;78.30
16663;DHT22;8445;51.270;9.434;2024-02-28T04:52:37;2.40;78.40
16663;DHT22;8445;51.270;9.434;2024-02-28T04:55:03;2.30;78.30
16663;DHT22;8445;51.270;9.434;2024-02-28T04:57:29;2.30;78.50
16663;DHT22;8445;51.270;9.434;2024-02-28T04:59:55;2.30;78.50
16663;DHT22;8445;51.270;9.434;2024-02-28T05:02:21;2.30;78.50
16663;DHT22;8445;51.270;9.434;2024-02-28T05:04:47;2.30;78.60
16663;DHT22;8445;51.270;9.434;2024-02-28T05:07:14;2.30;78.70
16663;DHT22;8445;51.270;9.434;2024-02-28T05:09:42;2.30;78.50
16663;DHT22;8445;51.270;9.434;2024-02-28T05:12:08;2.30;78.50
16663;DHT22;8445;51.270;9.434;2024-02-28T05:14:34;2.30;78.60
16663;DHT22;8445;51.270;9.434;2024-02-28T05:17:00;2.30;78.60
16663;DHT22;8445;51.270;9.434;2024-02-28T05:19:26;2.30;78.70
16663;DHT22;8445;51.270;9.434;2024-02-28T05:21:52;2.30;78.70
16663;DHT22;8445;51.270;9.434;2024-02-28T05:24:18;2.20;78.70
16663;DHT22;8445;51.270;9.434;2024-02-28T05:26:43;2.20;78.70
16663;DHT22;8445;51.270;9.434;2024-02-28T05:29:09;2.20;78.70
16663;DHT22;8445;51.270;9.434;2024-02-28T05:31:37;2.20;78.90
16663;DHT22;8445;51.270;9.434;2024-02-28T05:34:03;2.10;78.90
16663;DHT22;8445;51.270;9.434;2024-02-28T05:36:30;2.10;79.20
16663;DHT22;8445;51.270;9.434;2024-02-28T05:38:57;2.00;79.20
16663;DHT22;8445;51.270;9.434;2024-02-28T05:41:25;2.00;79.20
16663;DHT22;8445;51.270;9.434;2024-02-28T05:43:51;2.00;79.30
16663;DHT22;8445;51.270;9.434;2024-02-28T05:46:18;2.00;79.40
16663;DHT22;8445;51.270;9.434;2024-02-28T05:48:46;2.00;79.60
16663;DHT22;8445;51.270;9.434;2024-02-28T05:51:12;1.90;79.90
16663;DHT22;8445;51.270;9.434;2024-02-28T05:53:41;1.80;80.10
16663;DHT22;8445;51.270;9.434;2024-02-28T05:56:08;1.70;80.60
16663;DHT22;8445;51.270;9.434;2024-02-28T05:58:46;1.70;80.60
16663;DHT22;8445;51.270;9.434;2024-02-28T06:01:15;1.60;80.50
16663;DHT22;8445;51.270;9.434;2024-02-28T06:03:49;1.60;80.50
16663;DHT22;8445;51.270;9.434;2024-02-28T06:06:16;1.70;80.60
16663;DHT22;8445;51.270;9.434;2024-02-28T06:08:43;1.70;80.70
16663;DHT22;8445;51.270;9.434;2024-02-28T06:11:09;1.80;80.50
16663;DHT22;8445;51.270;9.434;2024-02-28T06:13:36;1.80;80.50
16663;DHT22;8445;51.270;9.434;2024-02-28T06:16:02;1.80;80.40
16663;DHT22;8445;51.270;9.434;2024-02-28T06:18:29;1.80;80.40
16663;DHT22;8445;51.270;9.434;2024-02-28T06:20:59;1.80;80.30
16663;DHT22;8445;51.270;9.434;2024-02-28T06:23:28;1.90;80.30
16663;DHT22;8445;51.270;9.434;2024-02-28T06:25:55;1.90;80.20
16663;DHT22;8445;51.270;9.434;2024-02-28T06:28:21;1.90;80.10
16663;DHT22;8445;51.270;9.434;2024-02-28T06:30:47;1.90;80.10
16663;DHT22;8445;51.270;9.434;2024-02-28T06:33:13;1.90;80.10
16663;DHT22;8445;51.270;9.434;2024-02-28T06:35:40;1.90;80.10
16663;DHT22;8445;51.270;9.434;2024-02-28T06:38:06;1.90;80.10
16663;DHT22;8445;51.270;9.434;2024-02-28T06:40:33;1.90;80.30
16663;DHT22;8445;51.270;9.434;2024-02-28T06:43:00;1.90;80.30
16663;DHT22;8445;51.270;9.434;2024-02-28T06:45:29;1.90;80.30
16663;DHT22;8445;51.270;9.434;2024-02-28T06:47:55;1.90;80.30
16663;DHT22;8445;51.270;9.434;2024-02-28T06:50:21;2.00;80.20
16663;DHT22;8445;51.270;9.434;2024-02-28T06:52:47;2.00;80.30
16663;DHT22;8445;51.270;9.434;2024-02-28T06:55:13;2.00;80.20
16663;DHT22;8445;51.270;9.434;2024-02-28T06:57:41;2.00;80.10
16663;DHT22;8445;51.270;9.434;2024-02-28T07:00:10;2.00;80.10
16663;DHT22;8445;51.270;9.434;2024-02-28T07:02:44;2.00;80.20
16663;DHT22;8445;51.270;9.434;2024-02-28T07:05:10;2.00;80.20
16663;DHT22;8445;51.270;9.434;2024-02-28T07:07:36;2.10;80.20
16663;DHT22;8445;51.270;9.434;2024-02-28T07:10:03;2.10;80.10
16663;DHT22;8445;51.270;9.434;2024-02-28T07:12:30;2.10;80.10
16663;DHT22;8445;51.270;9.434;2024-02-28T07:14:56;2.10;80.10
16663;DHT22;8445;51.270;9.434;2024-02-28T07:17:22;2.10;80.00
16663;DHT22;8445;51.270;9.434;2024-02-28T07:19:48;2.10;80.00
16663;DHT22;8445;51.270;9.434;2024-02-28T07:22:14;2.10;79.90
16663;DHT22;8445;51.270;9.434;2024-02-28T07:24:40;2.10;80.00
16663;DHT22;8445;51.270;9.434;2024-02-28T07:27:06;2.10;79.90
16663;DHT22;8445;51.270;9.434;2024-02-28T07:29:32;2.10;79.80
16663;DHT22;8445;51.270;9.434;2024-02-28T07:31:59;2.10;79.80
16663;DHT22;8445;51.270;9.434;2024-02-28T07:34:28;2.10;79.80
16663;DHT22;8445;51.270;9.434;2024-02-28T07:36:53;2.20;79.80
16663;DHT22;8445;51.270;9.434;2024-02-28T07:39:22;2.20;79.90
16663;DHT22;8445;51.270;9.434;2024-02-28T07:41:50;2.20;79.80
16663;DHT22;8445;51.270;9.434;2024-02-28T07:44:16;2.20;79.70
16663;DHT22;8445;51.270;9.434;2024-02-28T07:46:42;2.30;79.70
16663;DHT22;8445;51.270;9.434;2024-02-28T07:49:08;2.40;79.50
16663;DHT22;8445;51.270;9.434;2024-02-28T07:51:34;2.40;79.60
16663;DHT22;8445;51.270;9.434;2024-02-28T07:54:00;2.50;79.60
16663;DHT22;8445;51.270;9.434;2024-02-28T07:56:26;2.50;79.60
16663;DHT22;8445;51.270;9.434;2024-02-28T07:58:52;2.50;79.50
16663;DHT22;8445;51.270;9.434;2024-02-28T08:01:18;2.70;79.60
16663;DHT22;8445;51.270;9.434;2024-02-28T08:03:43;2.80;79.50
16663;DHT22;8445;51.270;9.434;2024-02-28T08:06:10;2.90;79.30
16663;DHT22;8445;51.270;9.434;2024-02-28T08:08:36;2.90;79.30
16663;DHT22;8445;51.270;9.434;2024-02-28T08:11:02;3.10;79.20
16663;DHT22;8445;51.270;9.434;2024-02-28T08:13:29;3.10;79.00
16663;DHT22;8445;51.270;9.434;2024-02-28T08:15:55;3.30;79.10
16663;DHT22;8445;51.270;9.434;2024-02-28T08:18:21;3.30;79.00
16663;DHT22;8445;51.270;9.434;2024-02-28T08:20:47;3.50;79.00
16663;DHT22;8445;51.270;9.434;2024-02-28T08:23:15;3.50;78.90
16663;DHT22;8445;51.270;9.434;2024-02-28T08:25:41;3.70;78.70
16663;DHT22;8445;51.270;9.434;2024-02-28T08:28:06;3.90;78.60
16663;DHT22;8445;51.270;9.434;2024-02-28T08:30:32;3.90;78.30
16663;DHT22;8445;51.270;9.434;2024-02-28T08:32:59;4.10;78.10
16663;DHT22;8445;51.270;9.434;2024-02-28T08:35:25;4.20;78.00
16663;DHT22;8445;51.270;9.434;2024-02-28T08:37:52;4.30;77.80
16663;DHT22;8445;51.270;9.434;2024-02-28T08:40:18;4.50;77.70
16663;DHT22;8445;51.270;9.434;2024-02-28T08:42:44;4.60;77.50
16663;DHT22;8445;51.270;9.434;2024-02-28T08:45:11;4.70;77.10
16663;DHT22;8445;51.270;9.434;2024-02-28T08:47:37;4.90;76.90
16663;DHT22;8445;51.270;9.434;2024-02-28T08:50:03;5.00;76.70
16663;DHT22;8445;51.270;9.434;2024-02-28T08:52:30;5.10;76.50
16663;DHT22;8445;51.270;9.434;2024-02-28T08:54:56;5.30;76.40
16663;DHT22;8445;51.270;9.434;2024-02-28T08:57:22;5.30;76.10
16663;DHT22;8445;51.270;9.434;2024-02-28T08:59:49;5.50;76.00
16663;DHT22;8445;51.270;9.434;2024-02-28T09:02:15;5.50;75.60
16663;DHT22;8445;51.270;9.434;2024-02-28T09:04:42;5.60;75.40
16663;DHT22;8445;51.270;9.434;2024-02-28T09:07:07;5.80;75.10
16663;DHT22;8445;51.270;9.434;2024-02-28T09:09:33;5.90;75.20
16663;DHT22;8445;51.270;9.434;2024-02-28T09:12:03;6.00;75.00
16663;DHT22;8445;51.270;9.434;2024-02-28T09:14:29;6.20;74.70
16663;DHT22;8445;51.270;9.434;2024-02-28T09:16:55;6.40;74.30
16663;DHT22;8445;51.270;9.434;2024-02-28T09:19:32;6.50;74.00
16663;DHT22;8445;51.270;9.434;2024-02-28T09:21:58;6.60;73.50
16663;DHT22;8445;51.270;9.434;2024-02-28T09:24:25;6.60;72.90
16663;DHT22;8445;51.270;9.434;2024-02-28T09:26:52;6.70;72.20
16663;DHT22;8445;51.270;9.434;2024-02-28T09:29:18;6.60;71.70
16663;DHT22;8445;51.270;9.434;2024-02-28T09:31:44;6.60;71.90
16663;DHT22;8445;51.270;9.434;2024-02-28T09:34:10;6.50;71.60
16663;DHT22;8445;51.270;9.434;2024-02-28T09:36:42;6.40;71.70
16663;DHT22;8445;51.270;9.434;2024-02-28T09:39:09;6.40;71.60
16663;DHT22;8445;51.270;9.434;2024-02-28T09:41:35;6.30;71.20
16663;DHT22;8445;51.270;9.434;2024-02-28T09:44:02;6.20;71.30
16663;DHT22;8445;51.270;9.434;2024-02-28T09:46:29;6.10;71.70
16663;DHT22;8445;51.270;9.434;2024-02-28T09:48:57;6.00;71.60
16663;DHT22;8445;51.270;9.434;2024-02-28T09:51:25;6.00;71.70
16663;DHT22;8445;51.270;9.434;2024-02-28T09:53:53;6.00;71.90
16663;DHT22;8445;51.270;9.434;2024-02-28T09:56:19;6.10;71.30
16663;DHT22;8445;51.270;9.434;2024-02-28T09:58:48;6.10;70.80
16663;DHT22;8445;51.270;9.434;2024-02-28T10:01:16;6.10;70.70
16663;DHT22;8445;51.270;9.434;2024-02-28T10:03:51;6.10;70.70
16663;DHT22;8445;51.270;9.434;2024-02-28T10:06:22;6.20;71.10
16663;DHT22;8445;51.270;9.434;2024-02-28T10:08:48;6.30;71.10
16663;DHT22;8445;51.270;9.434;2024-02-28T10:11:21;6.40;71.50
16663;DHT22;8445;51.270;9.434;2024-02-28T10:13:48;6.50;71.40
16663;DHT22;8445;51.270;9.434;2024-02-28T10:16:15;6.70;71.00
16663;DHT22;8445;51.270;9.434;2024-02-28T10:18:48;6.80;70.40
16663;DHT22;8445;51.270;9.434;2024-02-28T10:21:17;6.90;70.00
16663;DHT22;8445;51.270;9.434;2024-02-28T10:23:45;7.00;69.90
16663;DHT22;8445;51.270;9.434;2024-02-28T10:26:16;7.00;70.10
16663;DHT22;8445;51.270;9.434;2024-02-28T10:28:51;7.20;69.30
16663;DHT22;8445;51.270;9.434;2024-02-28T10:31:21;7.20;69.50
16663;DHT22;8445;51.270;9.434;2024-02-28T10:33:47;7.30;69.40
16663;DHT22;8445;51.270;9.434;2024-02-28T10:36:19;7.50;68.90
16663;DHT22;8445;51.270;9.434;2024-02-28T10:38:45;7.50;68.20
16663;DHT22;8445;51.270;9.434;2024-02-28T10:41:14;7.60;68.00
16663;DHT22;8445;51.270;9.434;2024-02-28T10:43:45;7.80;67.70
16663;DHT22;8445;51.270;9.434;2024-02-28T10:46:14;7.80;67.50
16663;DHT22;8445;51.270;9.434;2024-02-28T10:48:41;7.80;67.30
16663;DHT22;8445;51.270;9.434;2024-02-28T10:51:08;7.90;67.10
16663;DHT22;8445;51.270;9.434;2024-02-28T10:53:41;8.00;66.40
16663;DHT22;8445;51.270;9.434;2024-02-28T10:56:10;8.00;66.30
16663;DHT22;8445;51.270;9.434;2024-02-28T10:58:52;8.00;67.00
16663;DHT22;8445;51.270;9.434;2024-02-28T11:01:21;8.10;67.00
16663;DHT22;8445;51.270;9.434;2024-02-28T11:03:50;8.30;67.30
16663;DHT22;8445;51.270;9.434;2024-02-28T11:06:21;8.40;66.60
16663;DHT22;8445;51.270;9.434;2024-02-28T11:08:49;8.50;66.30
16663;DHT22;8445;51.270;9.434;2024-02-28T11:11:31;8.60;66.70
16663;DHT22;8445;51.270;9.434;2024-02-28T11:13:58;8.80;66.60
16663;DHT22;8445;51.270;9.434;2024-02-28T11:16:33;8.90;66.20
16663;DHT22;8445;51.270;9.434;2024-02-28T11:19:00;9.00;64.80
16663;DHT22;8445;51.270;9.434;2024-02-28T11:21:28;9.10;65.20
16663;DHT22;8445;51.270;9.434;2024-02-28T11:24:01;9.20;64.80
16663;DHT22;8445;51.270;9.434;2024-02-28T11:26:29;9.20;64.80
16663;DHT22;8445;51.270;9.434;2024-02-28T11:28:55;9.40;64.40
16663;DHT22;8445;51.270;9.434;2024-02-28T11:31:22;9.40;64.40
16663;DHT22;8445;51.270;9.434;2024-02-28T11:33:48;9.50;63.90
16663;DHT22;8445;51.270;9.434;2024-02-28T11:36:16;9.50;63.90
16663;DHT22;8445;51.270;9.434;2024-02-28T11:38:43;9.60;63.90
16663;DHT22;8445;51.270;9.434;2024-02-28T11:41:11;9.70;63.40
16663;DHT22;8445;51.270;9.434;2024-02-28T11:43:37;9.70;63.60
16663;DHT22;8445;51.270;9.434;2024-02-28T11:46:09;9.80;63.60
16663;DHT22;8445;51.270;9.434;2024-02-28T11:48:39;9.80;62.90
16663;DHT22;8445;51.270;9.434;2024-02-28T11:51:08;9.80;63.60
16663;DHT22;8445;51.270;9.434;2024-02-28T11:53:34;9.80;63.40
16663;DHT22;8445;51.270;9.434;2024-02-28T11:56:09;9.90;63.00
16663;DHT22;8445;51.270;9.434;2024-02-28T11:58:35;9.90;61.30
16663;DHT22;8445;51.270;9.434;2024-02-28T12:01:01;9.80;60.90
16663;DHT22;8445;51.270;9.434;2024-02-28T12:03:27;9.70;61.10
16663;DHT22;8445;51.270;9.434;2024-02-28T12:05:54;9.60;61.80
16663;DHT22;8445;51.270;9.434;2024-02-28T12:08:21;9.60;61.70
16663;DHT22;8445;51.270;9.434;2024-02-28T12:10:48;9.60;61.80
16663;DHT22;8445;51.270;9.434;2024-02-28T12:13:22;9.70;62.40
16663;DHT22;8445;51.270;9.434;2024-02-28T12:15:51;9.70;62.70
16663;DHT22;8445;51.270;9.434;2024-02-28T12:18:19;9.80;62.70
16663;DHT22;8445;51.270;9.434;2024-02-28T12:20:45;9.80;62.10
16663;DHT22;8445;51.270;9.434;2024-02-28T12:23:12;10.00;62.40
16663;DHT22;8445;51.270;9.434;2024-02-28T12:25:47;10.00;61.90
16663;DHT22;8445;51.270;9.434;2024-02-28T12:28:13;10.00;61.80
16663;DHT22;8445;51.270;9.434;2024-02-28T12:30:41;10.10;61.40
16663;DHT22;8445;51.270;9.434;2024-02-28T12:33:13;10.20;61.20
16663;DHT22;8445;51.270;9.434;2024-02-28T12:35:39;10.30;61.30
16663;DHT22;8445;51.270;9.434;2024-02-28T12:38:07;10.40;61.20
16663;DHT22;8445;51.270;9.434;2024-02-28T12:40:33;10.40;60.80
16663;DHT22;8445;51.270;9.434;2024-02-28T12:42:58;10.50;60.80
16663;DHT22;8445;51.270;9.434;2024-02-28T12:45:24;10.60;60.50
16663;DHT22;8445;51.270;9.434;2024-02-28T12:47:51;10.60;60.50
16663;DHT22;8445;51.270;9.434;2024-02-28T12:50:18;10.70;60.10
16663;DHT22;8445;51.270;9.434;2024-02-28T12:52:46;10.70;60.20
16663;DHT22;8445;51.270;9.434;2024-02-28T12:55:14;10.80;59.10
16663;DHT22;8445;51.270;9.434;2024-02-28T12:57:40;10.70;58.90
16663;DHT22;8445;51.270;9.434;2024-02-28T13:00:06;10.70;59.20
16663;DHT22;8445;51.270;9.434;2024-02-28T13:02:33;10.70;59.10
16663;DHT22;8445;51.270;9.434;2024-02-28T13:04:59;10.70;58.70
16663;DHT22;8445;51.270;9.434;2024-02-28T13:07:25;10.60;58.60
16663;DHT22;8445;51.270;9.434;2024-02-28T13:09:51;10.50;58.50
16663;DHT22;8445;51.270;9.434;2024-02-28T13:12:17;10.40;58.40
16663;DHT22;8445;51.270;9.434;2024-02-28T13:14:52;10.30;58.10
16663;DHT22;8445;51.270;9.434;2024-02-28T13:17:19;10.20;58.40
16663;DHT22;8445;51.270;9.434;2024-02-28T13:19:45;10.10;58.30
16663;DHT22;8445;51.270;9.434;2024-02-28T13:22:11;10.00;58.40
16663;DHT22;8445;51.270;9.434;2024-02-28T13:24:37;9.80;58.40
16663;DHT22;8445;51.270;9.434;2024-02-28T13:27:03;9.60;58.50
16663;DHT22;8445;51.270;9.434;2024-02-28T13:29:29;9.40;58.70
16663;DHT22;8445;51.270;9.434;2024-02-28T13:31:58;9.20;59.00
16663;DHT22;8445;51.270;9.434;2024-02-28T13:34:24;9.00;59.30
16663;DHT22;8445;51.270;9.434;2024-02-28T13:36:50;8.80;59.70
16663;DHT22;8445;51.270;9.434;2024-02-28T13:39:19;8.60;59.90
16663;DHT22;8445;51.270;9.434;2024-02-28T13:41:47;8.40;60.10
16663;DHT22;8445;51.270;9.434;2024-02-28T13:44:19;8.20;60.30
16663;DHT22;8445;51.270;9.434;2024-02-28T13:46:45;8.10;60.70
16663;DHT22;8445;51.270;9.434;2024-02-28T13:49:13;8.00;60.80
16663;DHT22;8445;51.270;9.434;2024-02-28T13:51:42;7.80;61.20
16663;DHT22;8445;51.270;9.434;2024-02-28T13:54:08;7.70;61.50
16663;DHT22;8445;51.270;9.434;2024-02-28T13:56:34;7.60;61.70
16663;DHT22;8445;51.270;9.434;2024-02-28T13:59:03;7.50;61.90
16663;DHT22;8445;51.270;9.434;2024-02-28T14:01:29;7.40;62.10
16663;DHT22;8445;51.270;9.434;2024-02-28T14:03:55;7.40;62.30
16663;DHT22;8445;51.270;9.434;2024-02-28T14:06:21;7.30;62.60
16663;DHT22;8445;51.270;9.434;2024-02-28T14:08:47;7.30;63.00
16663;DHT22;8445;51.270;9.434;2024-02-28T14:11:19;7.20;63.20
16663;DHT22;8445;51.270;9.434;2024-02-28T14:13:46;7.30;63.20
16663;DHT22;8445;51.270;9.434;2024-02-28T14:16:12;7.30;63.40
16663;DHT22;8445;51.270;9.434;2024-02-28T14:18:38;7.40;63.50
16663;DHT22;8445;51.270;9.434;2024-02-28T14:21:04;7.40;63.50
16663;DHT22;8445;51.270;9.434;2024-02-28T14:23:30;7.50;63.50
16663;DHT22;8445;51.270;9.434;2024-02-28T14:25:57;7.50;63.50
16663;DHT22;8445;51.270;9.434;2024-02-28T14:28:23;7.50;63.50
16663;DHT22;8445;51.270;9.434;2024-02-28T14:30:49;7.50;63.60
16663;DHT22;8445;51.270;9.434;2024-02-28T14:33:17;7.50;63.70
16663;DHT22;8445;51.270;9.434;2024-02-28T14:35:43;7.50;63.60
16663;DHT22;8445;51.270;9.434;2024-02-28T14:38:09;7.50;63.60
16663;DHT22;8445;51.270;9.434;2024-02-28T14:40:36;7.50;63.60
16663;DHT22;8445;51.270;9.434;2024-02-28T14:43:02;7.50;63.60
16663;DHT22;8445;51.270;9.434;2024-02-28T14:45:28;7.50;63.60
16663;DHT22;8445;51.270;9.434;2024-02-28T14:47:54;7.50;63.50
16663;DHT22;8445;51.270;9.434;2024-02-28T14:50:20;7.50;63.50
16663;DHT22;8445;51.270;9.434;2024-02-28T14:52:46;7.60;63.70
16663;DHT22;8445;51.270;9.434;2024-02-28T14:55:12;7.60;63.70
16663;DHT22;8445;51.270;9.434;2024-02-28T14:57:38;7.70;63.80
16663;DHT22;8445;51.270;9.434;2024-02-28T15:00:09;7.80;63.90
16663;DHT22;8445;51.270;9.434;2024-02-28T15:02:43;7.80;63.30
16663;DHT22;8445;51.270;9.434;2024-02-28T15:05:11;7.80;63.10
16663;DHT22;8445;51.270;9.434;2024-02-28T15:07:37;7.80;63.20
16663;DHT22;8445;51.270;9.434;2024-02-28T15:10:06;7.90;63.20
16663;DHT22;8445;51.270;9.434;2024-02-28T15:12:33;8.00;62.90
16663;DHT22;8445;51.270;9.434;2024-02-28T15:15:00;8.00;62.50
16663;DHT22;8445;51.270;9.434;2024-02-28T15:17:28;8.00;62.50
16663;DHT22;8445;51.270;9.434;2024-02-28T15:19:54;8.00;62.30
16663;DHT22;8445;51.270;9.434;2024-02-28T15:22:20;8.00;62.30
16663;DHT22;8445;51.270;9.434;2024-02-28T15:24:46;8.00;62.40
16663;DHT22;8445;51.270;9.434;2024-02-28T15:27:12;8.00;62.50
16663;DHT22;8445;51.270;9.434;2024-02-28T15:29:40;8.00;62.00
16663;DHT22;8445;51.270;9.434;2024-02-28T15:32:17;8.00;61.90
16663;DHT22;8445;51.270;9.434;2024-02-28T15:34:47;8.00;61.70
16663;DHT22;8445;51.270;9.434;2024-02-28T15:37:20;8.00;61.80
16663;DHT22;8445;51.270;9.434;2024-02-28T15:39:49;8.00;61.70
16663;DHT22;8445;51.270;9.434;2024-02-28T15:42:17;8.00;61.80
16663;DHT22;8445;51.270;9.434;2024-02-28T15:44:45;8.00;61.50
16663;DHT22;8445;51.270;9.434;2024-02-28T15:47:11;8.00;61.20
16663;DHT22;8445;51.270;9.434;2024-02-28T15:49:36;8.00;61.20
16663;DHT22;8445;51.270;9.434;2024-02-28T15:52:03;8.00;61.00
16663;DHT22;8445;51.270;9.434;2024-02-28T15:54:31;7.90;61.20
16663;DHT22;8445;51.270;9.434;2024-02-28T15:56:56;7.90;61.20
16663;DHT22;8445;51.270;9.434;2024-02-28T15:59:25;7.80;61.30